Terminal Aerodrome Forecast
Issued by NWS

Home | Current Version | Previous Version | Text Only | Print | Product List | Glossary On
Versions: 1 2 3 4 5 6 7 8 9 10 11 12 13 14 15 16 17 18 19 20 21 22 23 24 25 26 27 28 29 30 31
000
FTUS44 KHGX 250520
TAFLBX
TAF
KLBX 250520Z 2506/2606 19007KT P6SM SCT250
     FM251200 VRB03KT P6SM VCSH SCT025
     FM251600 18005KT P6SM VCTS BKN035CB PROB30 2516/2522 5SM TSRA
      BR BKN025CB
     FM260200 VRB04KT P6SM VCSH SCT050=

USA.gov is the U.S. government's official web portal to all federal, state and local government web resources and services.